sensor_id;sensor_type;location;lat;lon;timestamp;temperature;humidity
37560;DHT22;23398;50.928;7.084;2022-07-18T00:00:13;18.50;55.50
37560;DHT22;23398;50.928;7.084;2022-07-18T00:02:39;18.40;55.50
37560;DHT22;23398;50.928;7.084;2022-07-18T00:05:05;18.40;55.60
37560;DHT22;23398;50.928;7.084;2022-07-18T00:07:31;18.40;55.70
37560;DHT22;23398;50.928;7.084;2022-07-18T00:09:56;18.30;55.80
37560;DHT22;23398;50.928;7.084;2022-07-18T00:12:22;18.20;55.90
37560;DHT22;23398;50.928;7.084;2022-07-18T00:14:47;18.20;56.20
37560;DHT22;23398;50.928;7.084;2022-07-18T00:17:13;18.20;56.40
37560;DHT22;23398;50.928;7.084;2022-07-18T00:19:39;18.10;56.50
37560;DHT22;23398;50.928;7.084;2022-07-18T00:22:06;18.10;56.80
37560;DHT22;23398;50.928;7.084;2022-07-18T00:24:31;18.20;57.20
37560;DHT22;23398;50.928;7.084;2022-07-18T00:26:58;18.00;56.90
37560;DHT22;23398;50.928;7.084;2022-07-18T00:29:24;18.00;57.00
37560;DHT22;23398;50.928;7.084;2022-07-18T00:31:50;17.90;56.90
37560;DHT22;23398;50.928;7.084;2022-07-18T00:34:15;17.90;57.10
37560;DHT22;23398;50.928;7.084;2022-07-18T00:36:41;17.90;57.20
37560;DHT22;23398;50.928;7.084;2022-07-18T00:39:06;17.80;57.30
37560;DHT22;23398;50.928;7.084;2022-07-18T00:41:32;17.80;57.40
37560;DHT22;23398;50.928;7.084;2022-07-18T00:43:58;17.80;57.40
37560;DHT22;23398;50.928;7.084;2022-07-18T00:46:24;17.80;57.40
37560;DHT22;23398;50.928;7.084;2022-07-18T00:48:50;17.80;57.70
37560;DHT22;23398;50.928;7.084;2022-07-18T00:51:16;17.70;57.70
37560;DHT22;23398;50.928;7.084;2022-07-18T00:53:43;17.70;57.70
37560;DHT22;23398;50.928;7.084;2022-07-18T00:56:09;17.70;57.70
37560;DHT22;23398;50.928;7.084;2022-07-18T00:58:35;17.50;57.80
37560;DHT22;23398;50.928;7.084;2022-07-18T01:01:02;17.50;58.10
37560;DHT22;23398;50.928;7.084;2022-07-18T01:03:46;17.50;58.20
37560;DHT22;23398;50.928;7.084;2022-07-18T01:06:12;17.40;58.20
37560;DHT22;23398;50.928;7.084;2022-07-18T01:08:38;17.40;58.30
37560;DHT22;23398;50.928;7.084;2022-07-18T01:11:06;17.40;58.20
37560;DHT22;23398;50.928;7.084;2022-07-18T01:13:32;17.30;58.30
37560;DHT22;23398;50.928;7.084;2022-07-18T01:15:58;17.20;58.50
37560;DHT22;23398;50.928;7.084;2022-07-18T01:18:23;17.20;58.70
37560;DHT22;23398;50.928;7.084;2022-07-18T01:20:49;17.10;58.60
37560;DHT22;23398;50.928;7.084;2022-07-18T01:23:15;17.10;58.80
37560;DHT22;23398;50.928;7.084;2022-07-18T01:25:40;17.10;58.90
37560;DHT22;23398;50.928;7.084;2022-07-18T01:28:06;17.00;58.90
37560;DHT22;23398;50.928;7.084;2022-07-18T01:30:32;17.00;59.00
37560;DHT22;23398;50.928;7.084;2022-07-18T01:33:00;17.00;59.00
37560;DHT22;23398;50.928;7.084;2022-07-18T01:35:27;16.90;59.10
37560;DHT22;23398;50.928;7.084;2022-07-18T01:37:54;16.90;59.10
37560;DHT22;23398;50.928;7.084;2022-07-18T01:40:20;16.80;59.10
37560;DHT22;23398;50.928;7.084;2022-07-18T01:42:46;16.70;59.10
37560;DHT22;23398;50.928;7.084;2022-07-18T01:45:12;16.70;59.20
37560;DHT22;23398;50.928;7.084;2022-07-18T01:47:37;16.70;59.40
37560;DHT22;23398;50.928;7.084;2022-07-18T01:50:04;16.60;59.40
37560;DHT22;23398;50.928;7.084;2022-07-18T01:52:30;16.60;59.60
37560;DHT22;23398;50.928;7.084;2022-07-18T01:54:55;16.50;59.60
37560;DHT22;23398;50.928;7.084;2022-07-18T01:57:21;16.50;59.70
37560;DHT22;23398;50.928;7.084;2022-07-18T01:59:47;16.50;59.90
37560;DHT22;23398;50.928;7.084;2022-07-18T02:02:12;16.60;60.10
37560;DHT22;23398;50.928;7.084;2022-07-18T02:04:38;16.40;60.10
37560;DHT22;23398;50.928;7.084;2022-07-18T02:07:40;16.40;60.10
37560;DHT22;23398;50.928;7.084;2022-07-18T02:10:09;16.40;60.20
37560;DHT22;23398;50.928;7.084;2022-07-18T02:12:35;16.40;60.20
37560;DHT22;23398;50.928;7.084;2022-07-18T02:15:03;16.40;61.00
37560;DHT22;23398;50.928;7.084;2022-07-18T02:17:30;16.30;60.20
37560;DHT22;23398;50.928;7.084;2022-07-18T02:19:55;16.60;60.50
37560;DHT22;23398;50.928;7.084;2022-07-18T02:22:21;16.30;60.10
37560;DHT22;23398;50.928;7.084;2022-07-18T02:24:46;16.50;60.40
37560;DHT22;23398;50.928;7.084;2022-07-18T02:27:12;16.20;60.20
37560;DHT22;23398;50.928;7.084;2022-07-18T02:29:38;16.30;60.40
37560;DHT22;23398;50.928;7.084;2022-07-18T02:32:04;16.10;60.30
37560;DHT22;23398;50.928;7.084;2022-07-18T02:34:29;16.10;60.50
37560;DHT22;23398;50.928;7.084;2022-07-18T02:36:55;16.10;60.90
37560;DHT22;23398;50.928;7.084;2022-07-18T02:39:20;16.10;61.10
37560;DHT22;23398;50.928;7.084;2022-07-18T02:41:47;16.00;61.30
37560;DHT22;23398;50.928;7.084;2022-07-18T02:44:13;16.00;61.40
37560;DHT22;23398;50.928;7.084;2022-07-18T02:46:40;16.00;61.40
37560;DHT22;23398;50.928;7.084;2022-07-18T02:49:05;16.00;61.60
37560;DHT22;23398;50.928;7.084;2022-07-18T02:51:31;15.90;61.50
37560;DHT22;23398;50.928;7.084;2022-07-18T02:53:57;15.90;61.60
37560;DHT22;23398;50.928;7.084;2022-07-18T02:56:23;15.90;61.80
37560;DHT22;23398;50.928;7.084;2022-07-18T02:58:48;16.30;62.20
37560;DHT22;23398;50.928;7.084;2022-07-18T03:01:14;15.80;61.50
37560;DHT22;23398;50.928;7.084;2022-07-18T03:03:39;16.20;61.70
37560;DHT22;23398;50.928;7.084;2022-07-18T03:06:05;15.90;61.40
37560;DHT22;23398;50.928;7.084;2022-07-18T03:08:31;15.80;61.30
37560;DHT22;23398;50.928;7.084;2022-07-18T03:10:56;15.70;61.40
37560;DHT22;23398;50.928;7.084;2022-07-18T03:13:22;15.70;61.40
37560;DHT22;23398;50.928;7.084;2022-07-18T03:15:47;15.60;61.70
37560;DHT22;23398;50.928;7.084;2022-07-18T03:18:13;15.60;62.10
37560;DHT22;23398;50.928;7.084;2022-07-18T03:20:39;15.50;62.00
37560;DHT22;23398;50.928;7.084;2022-07-18T03:23:05;15.60;62.20
37560;DHT22;23398;50.928;7.084;2022-07-18T03:25:31;15.50;62.00
37560;DHT22;23398;50.928;7.084;2022-07-18T03:27:56;15.50;62.10
37560;DHT22;23398;50.928;7.084;2022-07-18T03:30:22;15.90;62.70
37560;DHT22;23398;50.928;7.084;2022-07-18T03:32:48;15.80;62.80
37560;DHT22;23398;50.928;7.084;2022-07-18T03:35:13;15.30;62.20
37560;DHT22;23398;50.928;7.084;2022-07-18T03:37:39;15.30;62.30
37560;DHT22;23398;50.928;7.084;2022-07-18T03:40:05;15.40;62.60
37560;DHT22;23398;50.928;7.084;2022-07-18T03:42:31;15.30;62.70
37560;DHT22;23398;50.928;7.084;2022-07-18T03:44:56;15.30;63.10
37560;DHT22;23398;50.928;7.084;2022-07-18T03:47:22;15.20;63.20
37560;DHT22;23398;50.928;7.084;2022-07-18T03:49:47;15.20;63.10
37560;DHT22;23398;50.928;7.084;2022-07-18T03:52:13;15.20;63.00
37560;DHT22;23398;50.928;7.084;2022-07-18T03:54:38;15.20;62.90
37560;DHT22;23398;50.928;7.084;2022-07-18T03:57:04;15.20;63.10
37560;DHT22;23398;50.928;7.084;2022-07-18T03:59:30;15.20;63.00
37560;DHT22;23398;50.928;7.084;2022-07-18T04:01:55;15.20;63.20
37560;DHT22;23398;50.928;7.084;2022-07-18T04:04:21;15.20;63.30
37560;DHT22;23398;50.928;7.084;2022-07-18T04:06:47;15.20;63.50
37560;DHT22;23398;50.928;7.084;2022-07-18T04:09:12;15.30;63.80
37560;DHT22;23398;50.928;7.084;2022-07-18T04:11:38;15.20;63.90
37560;DHT22;23398;50.928;7.084;2022-07-18T04:14:03;15.10;64.00
37560;DHT22;23398;50.928;7.084;2022-07-18T04:16:29;15.30;64.40
37560;DHT22;23398;50.928;7.084;2022-07-18T04:18:55;15.20;64.30
37560;DHT22;23398;50.928;7.084;2022-07-18T04:21:21;15.20;64.30
37560;DHT22;23398;50.928;7.084;2022-07-18T04:23:46;15.30;64.60
37560;DHT22;23398;50.928;7.084;2022-07-18T04:26:12;15.30;64.60
37560;DHT22;23398;50.928;7.084;2022-07-18T04:28:38;15.40;64.70
37560;DHT22;23398;50.928;7.084;2022-07-18T04:31:03;15.50;64.80
37560;DHT22;23398;50.928;7.084;2022-07-18T04:33:29;15.50;64.80
37560;DHT22;23398;50.928;7.084;2022-07-18T04:35:54;15.60;64.90
37560;DHT22;23398;50.928;7.084;2022-07-18T04:38:20;15.60;64.80
37560;DHT22;23398;50.928;7.084;2022-07-18T04:40:46;15.70;65.90
37560;DHT22;23398;50.928;7.084;2022-07-18T04:43:11;15.80;65.60
37560;DHT22;23398;50.928;7.084;2022-07-18T04:45:37;15.80;65.70
37560;DHT22;23398;50.928;7.084;2022-07-18T04:48:04;16.00;66.10
37560;DHT22;23398;50.928;7.084;2022-07-18T04:50:30;16.10;66.40
37560;DHT22;23398;50.928;7.084;2022-07-18T04:52:57;16.20;66.60
37560;DHT22;23398;50.928;7.084;2022-07-18T04:55:24;16.30;67.10
37560;DHT22;23398;50.928;7.084;2022-07-18T04:57:51;16.40;66.30
37560;DHT22;23398;50.928;7.084;2022-07-18T05:00:20;16.50;66.20
37560;DHT22;23398;50.928;7.084;2022-07-18T05:02:48;16.60;66.40
37560;DHT22;23398;50.928;7.084;2022-07-18T05:05:17;16.70;66.30
37560;DHT22;23398;50.928;7.084;2022-07-18T05:07:44;16.80;67.20
37560;DHT22;23398;50.928;7.084;2022-07-18T05:10:11;17.00;66.30
37560;DHT22;23398;50.928;7.084;2022-07-18T05:12:42;17.10;66.10
37560;DHT22;23398;50.928;7.084;2022-07-18T05:15:09;17.20;65.80
37560;DHT22;23398;50.928;7.084;2022-07-18T05:17:36;17.30;65.70
37560;DHT22;23398;50.928;7.084;2022-07-18T05:20:04;17.50;65.70
37560;DHT22;23398;50.928;7.084;2022-07-18T05:22:30;17.50;65.50
37560;DHT22;23398;50.928;7.084;2022-07-18T05:24:57;17.70;65.40
37560;DHT22;23398;50.928;7.084;2022-07-18T05:27:22;17.80;65.20
37560;DHT22;23398;50.928;7.084;2022-07-18T05:29:48;17.90;65.00
37560;DHT22;23398;50.928;7.084;2022-07-18T05:32:13;18.00;65.00
37560;DHT22;23398;50.928;7.084;2022-07-18T05:34:39;18.30;65.20
37560;DHT22;23398;50.928;7.084;2022-07-18T05:37:04;18.30;65.10
37560;DHT22;23398;50.928;7.084;2022-07-18T05:39:30;18.50;65.30
37560;DHT22;23398;50.928;7.084;2022-07-18T05:41:55;18.60;65.40
37560;DHT22;23398;50.928;7.084;2022-07-18T05:44:21;18.80;65.50
37560;DHT22;23398;50.928;7.084;2022-07-18T05:46:47;19.00;65.70
37560;DHT22;23398;50.928;7.084;2022-07-18T05:49:14;19.20;65.90
37560;DHT22;23398;50.928;7.084;2022-07-18T05:51:39;19.40;65.20
37560;DHT22;23398;50.928;7.084;2022-07-18T05:54:05;19.60;63.80
37560;DHT22;23398;50.928;7.084;2022-07-18T05:56:31;20.00;63.10
37560;DHT22;23398;50.928;7.084;2022-07-18T05:58:56;20.10;61.90
37560;DHT22;23398;50.928;7.084;2022-07-18T06:01:22;20.30;59.60
37560;DHT22;23398;50.928;7.084;2022-07-18T06:03:48;20.60;58.80
37560;DHT22;23398;50.928;7.084;2022-07-18T06:06:14;20.90;58.10
37560;DHT22;23398;50.928;7.084;2022-07-18T06:08:40;21.10;58.00
37560;DHT22;23398;50.928;7.084;2022-07-18T06:11:07;21.50;56.70
37560;DHT22;23398;50.928;7.084;2022-07-18T06:13:35;21.60;55.90
37560;DHT22;23398;50.928;7.084;2022-07-18T06:16:02;21.90;55.40
37560;DHT22;23398;50.928;7.084;2022-07-18T06:18:27;22.10;54.50
37560;DHT22;23398;50.928;7.084;2022-07-18T06:20:53;22.40;53.90
37560;DHT22;23398;50.928;7.084;2022-07-18T06:23:19;22.60;52.40
37560;DHT22;23398;50.928;7.084;2022-07-18T06:25:44;22.80;52.50
37560;DHT22;23398;50.928;7.084;2022-07-18T06:28:10;23.00;52.20
37560;DHT22;23398;50.928;7.084;2022-07-18T06:30:35;23.20;51.90
37560;DHT22;23398;50.928;7.084;2022-07-18T06:33:01;23.40;51.60
37560;DHT22;23398;50.928;7.084;2022-07-18T06:35:31;23.60;51.30
37560;DHT22;23398;50.928;7.084;2022-07-18T06:37:57;23.80;51.10
37560;DHT22;23398;50.928;7.084;2022-07-18T06:40:23;24.00;50.40
37560;DHT22;23398;50.928;7.084;2022-07-18T06:42:51;24.30;49.90
37560;DHT22;23398;50.928;7.084;2022-07-18T06:45:17;24.40;49.00
37560;DHT22;23398;50.928;7.084;2022-07-18T06:47:42;24.70;48.50
37560;DHT22;23398;50.928;7.084;2022-07-18T06:50:09;24.90;48.50
37560;DHT22;23398;50.928;7.084;2022-07-18T06:52:36;25.30;48.90
37560;DHT22;23398;50.928;7.084;2022-07-18T06:55:01;25.80;49.00
37560;DHT22;23398;50.928;7.084;2022-07-18T06:57:27;26.50;49.20
37560;DHT22;23398;50.928;7.084;2022-07-18T06:59:53;27.40;48.10
37560;DHT22;23398;50.928;7.084;2022-07-18T07:02:19;28.30;46.10
37560;DHT22;23398;50.928;7.084;2022-07-18T07:04:45;29.30;45.00
37560;DHT22;23398;50.928;7.084;2022-07-18T07:07:10;30.20;44.20
37560;DHT22;23398;50.928;7.084;2022-07-18T07:09:36;31.10;41.50
37560;DHT22;23398;50.928;7.084;2022-07-18T07:12:02;32.10;39.50
37560;DHT22;23398;50.928;7.084;2022-07-18T07:14:27;32.90;39.20
37560;DHT22;23398;50.928;7.084;2022-07-18T07:16:53;33.80;38.80
37560;DHT22;23398;50.928;7.084;2022-07-18T07:19:18;34.60;37.60
37560;DHT22;23398;50.928;7.084;2022-07-18T07:21:44;35.40;35.90
37560;DHT22;23398;50.928;7.084;2022-07-18T07:24:09;36.30;34.30
37560;DHT22;23398;50.928;7.084;2022-07-18T07:26:35;37.10;34.00
37560;DHT22;23398;50.928;7.084;2022-07-18T07:29:01;37.90;33.80
37560;DHT22;23398;50.928;7.084;2022-07-18T07:31:26;38.80;32.70
37560;DHT22;23398;50.928;7.084;2022-07-18T07:33:53;39.70;31.40
37560;DHT22;23398;50.928;7.084;2022-07-18T07:36:18;40.70;30.50
37560;DHT22;23398;50.928;7.084;2022-07-18T07:38:44;41.60;29.10
37560;DHT22;23398;50.928;7.084;2022-07-18T07:41:09;42.40;28.70
37560;DHT22;23398;50.928;7.084;2022-07-18T07:43:35;43.30;27.30
37560;DHT22;23398;50.928;7.084;2022-07-18T07:46:03;44.00;26.60
37560;DHT22;23398;50.928;7.084;2022-07-18T07:48:29;44.80;26.30
37560;DHT22;23398;50.928;7.084;2022-07-18T07:50:55;45.50;25.40
37560;DHT22;23398;50.928;7.084;2022-07-18T07:53:20;46.10;25.10
37560;DHT22;23398;50.928;7.084;2022-07-18T07:55:46;46.80;24.40
37560;DHT22;23398;50.928;7.084;2022-07-18T07:58:11;47.30;24.20
37560;DHT22;23398;50.928;7.084;2022-07-18T08:00:37;47.80;23.50
37560;DHT22;23398;50.928;7.084;2022-07-18T08:03:06;48.40;22.90
37560;DHT22;23398;50.928;7.084;2022-07-18T08:05:36;48.80;22.60
37560;DHT22;23398;50.928;7.084;2022-07-18T08:08:03;49.30;22.30
37560;DHT22;23398;50.928;7.084;2022-07-18T08:10:30;49.70;21.80
37560;DHT22;23398;50.928;7.084;2022-07-18T08:12:56;50.20;21.60
37560;DHT22;23398;50.928;7.084;2022-07-18T08:15:22;50.60;21.60
37560;DHT22;23398;50.928;7.084;2022-07-18T08:17:49;51.10;20.90
37560;DHT22;23398;50.928;7.084;2022-07-18T08:20:15;51.60;20.90
37560;DHT22;23398;50.928;7.084;2022-07-18T08:23:03;52.10;20.50
37560;DHT22;23398;50.928;7.084;2022-07-18T08:25:31;52.50;20.30
37560;DHT22;23398;50.928;7.084;2022-07-18T08:27:57;53.00;19.80
37560;DHT22;23398;50.928;7.084;2022-07-18T08:30:23;53.40;19.60
37560;DHT22;23398;50.928;7.084;2022-07-18T08:32:49;53.80;19.60
37560;DHT22;23398;50.928;7.084;2022-07-18T08:35:15;54.10;19.40
37560;DHT22;23398;50.928;7.084;2022-07-18T08:37:41;54.40;18.80
37560;DHT22;23398;50.928;7.084;2022-07-18T08:40:07;54.60;18.50
37560;DHT22;23398;50.928;7.084;2022-07-18T08:42:34;54.90;18.10
37560;DHT22;23398;50.928;7.084;2022-07-18T08:45:00;55.10;17.60
37560;DHT22;23398;50.928;7.084;2022-07-18T08:47:28;55.30;18.00
37560;DHT22;23398;50.928;7.084;2022-07-18T08:49:54;55.40;17.50
37560;DHT22;23398;50.928;7.084;2022-07-18T08:52:20;55.50;17.70
37560;DHT22;23398;50.928;7.084;2022-07-18T08:54:46;55.60;17.50
37560;DHT22;23398;50.928;7.084;2022-07-18T08:57:15;55.60;17.20
37560;DHT22;23398;50.928;7.084;2022-07-18T08:59:41;55.70;17.20
37560;DHT22;23398;50.928;7.084;2022-07-18T09:02:09;55.80;17.30
37560;DHT22;23398;50.928;7.084;2022-07-18T09:04:37;55.80;16.80
37560;DHT22;23398;50.928;7.084;2022-07-18T09:07:03;55.80;17.70
37560;DHT22;23398;50.928;7.084;2022-07-18T09:09:30;55.90;16.90
37560;DHT22;23398;50.928;7.084;2022-07-18T09:11:59;56.00;17.10
37560;DHT22;23398;50.928;7.084;2022-07-18T09:14:35;56.10;16.80
37560;DHT22;23398;50.928;7.084;2022-07-18T09:19:30;56.20;16.80
37560;DHT22;23398;50.928;7.084;2022-07-18T09:22:11;56.20;16.60
37560;DHT22;23398;50.928;7.084;2022-07-18T09:30:20;56.70;16.40
37560;DHT22;23398;50.928;7.084;2022-07-18T09:32:55;56.80;16.60
37560;DHT22;23398;50.928;7.084;2022-07-18T09:35:24;56.90;16.40
37560;DHT22;23398;50.928;7.084;2022-07-18T09:37:53;57.10;16.60
37560;DHT22;23398;50.928;7.084;2022-07-18T09:40:22;57.40;16.30
37560;DHT22;23398;50.928;7.084;2022-07-18T09:42:57;57.60;16.00
37560;DHT22;23398;50.928;7.084;2022-07-18T09:45:32;57.70;16.10
37560;DHT22;23398;50.928;7.084;2022-07-18T09:48:01;57.80;16.50
37560;DHT22;23398;50.928;7.084;2022-07-18T09:50:39;57.90;16.10
37560;DHT22;23398;50.928;7.084;2022-07-18T09:53:22;58.00;16.20
37560;DHT22;23398;50.928;7.084;2022-07-18T09:55:56;58.20;16.50
37560;DHT22;23398;50.928;7.084;2022-07-18T09:58:28;58.40;16.40
37560;DHT22;23398;50.928;7.084;2022-07-18T10:00:55;58.70;16.30
37560;DHT22;23398;50.928;7.084;2022-07-18T10:03:22;58.90;16.00
37560;DHT22;23398;50.928;7.084;2022-07-18T10:05:49;59.20;16.50
37560;DHT22;23398;50.928;7.084;2022-07-18T10:08:17;59.60;15.80
37560;DHT22;23398;50.928;7.084;2022-07-18T10:10:44;59.80;16.00
37560;DHT22;23398;50.928;7.084;2022-07-18T10:13:11;60.00;16.00
37560;DHT22;23398;50.928;7.084;2022-07-18T10:15:39;60.10;15.90
37560;DHT22;23398;50.928;7.084;2022-07-18T10:18:17;60.20;15.70
37560;DHT22;23398;50.928;7.084;2022-07-18T10:23:33;60.50;15.40
37560;DHT22;23398;50.928;7.084;2022-07-18T10:26:21;60.60;15.60
37560;DHT22;23398;50.928;7.084;2022-07-18T10:31:22;60.50;15.00
37560;DHT22;23398;50.928;7.084;2022-07-18T10:33:49;60.30;14.80
37560;DHT22;23398;50.928;7.084;2022-07-18T10:36:19;60.20;14.60
37560;DHT22;23398;50.928;7.084;2022-07-18T11:02:44;55.40;14.80
37560;DHT22;23398;50.928;7.084;2022-07-18T11:16:17;49.80;17.10
37560;DHT22;23398;50.928;7.084;2022-07-18T11:23:46;46.70;18.20
37560;DHT22;23398;50.928;7.084;2022-07-18T11:26:16;46.00;19.40
37560;DHT22;23398;50.928;7.084;2022-07-18T11:28:42;45.20;18.40
37560;DHT22;23398;50.928;7.084;2022-07-18T11:31:10;44.50;19.50
37560;DHT22;23398;50.928;7.084;2022-07-18T11:33:38;43.90;19.90
37560;DHT22;23398;50.928;7.084;2022-07-18T11:36:13;43.20;20.00
37560;DHT22;23398;50.928;7.084;2022-07-18T11:38:46;42.70;20.30
37560;DHT22;23398;50.928;7.084;2022-07-18T11:41:13;42.20;20.60
37560;DHT22;23398;50.928;7.084;2022-07-18T11:43:39;41.80;20.50
37560;DHT22;23398;50.928;7.084;2022-07-18T11:46:09;41.30;20.30
37560;DHT22;23398;50.928;7.084;2022-07-18T11:48:37;40.90;20.00
37560;DHT22;23398;50.928;7.084;2022-07-18T11:51:09;40.60;20.50
37560;DHT22;23398;50.928;7.084;2022-07-18T11:53:35;40.20;20.20
37560;DHT22;23398;50.928;7.084;2022-07-18T11:56:04;40.00;20.40
37560;DHT22;23398;50.928;7.084;2022-07-18T11:58:35;39.60;20.50
37560;DHT22;23398;50.928;7.084;2022-07-18T12:01:02;39.30;20.40
37560;DHT22;23398;50.928;7.084;2022-07-18T12:03:28;39.00;20.90
37560;DHT22;23398;50.928;7.084;2022-07-18T12:05:55;38.80;22.00
37560;DHT22;23398;50.928;7.084;2022-07-18T12:08:31;38.60;22.90
37560;DHT22;23398;50.928;7.084;2022-07-18T12:11:19;38.30;22.80
37560;DHT22;23398;50.928;7.084;2022-07-18T12:16:34;38.10;23.70
37560;DHT22;23398;50.928;7.084;2022-07-18T12:19:09;38.00;25.90
37560;DHT22;23398;50.928;7.084;2022-07-18T12:21:47;37.90;23.00
37560;DHT22;23398;50.928;7.084;2022-07-18T12:24:37;37.70;24.90
37560;DHT22;23398;50.928;7.084;2022-07-18T12:27:26;37.60;23.70
37560;DHT22;23398;50.928;7.084;2022-07-18T12:35:16;37.40;23.10
37560;DHT22;23398;50.928;7.084;2022-07-18T12:37:57;37.30;23.00
37560;DHT22;23398;50.928;7.084;2022-07-18T12:40:25;37.30;23.10
37560;DHT22;23398;50.928;7.084;2022-07-18T12:43:02;37.20;24.30
37560;DHT22;23398;50.928;7.084;2022-07-18T12:45:28;37.10;23.40
37560;DHT22;23398;50.928;7.084;2022-07-18T12:47:53;37.10;23.40
37560;DHT22;23398;50.928;7.084;2022-07-18T12:50:19;37.10;23.30
37560;DHT22;23398;50.928;7.084;2022-07-18T12:52:44;37.10;23.40
37560;DHT22;23398;50.928;7.084;2022-07-18T12:55:10;37.10;24.10
37560;DHT22;23398;50.928;7.084;2022-07-18T12:57:35;37.10;23.80
37560;DHT22;23398;50.928;7.084;2022-07-18T13:00:02;37.20;24.10
37560;DHT22;23398;50.928;7.084;2022-07-18T13:02:28;37.30;24.20
37560;DHT22;23398;50.928;7.084;2022-07-18T13:04:53;37.40;25.30
37560;DHT22;23398;50.928;7.084;2022-07-18T13:07:19;37.60;24.10
37560;DHT22;23398;50.928;7.084;2022-07-18T13:09:44;37.60;23.60
37560;DHT22;23398;50.928;7.084;2022-07-18T13:12:10;37.80;24.50
37560;DHT22;23398;50.928;7.084;2022-07-18T13:14:36;37.90;23.80
37560;DHT22;23398;50.928;7.084;2022-07-18T13:17:02;37.90;23.30
37560;DHT22;23398;50.928;7.084;2022-07-18T13:19:27;38.00;23.20
37560;DHT22;23398;50.928;7.084;2022-07-18T13:21:54;38.10;23.30
37560;DHT22;23398;50.928;7.084;2022-07-18T13:24:20;38.10;24.00
37560;DHT22;23398;50.928;7.084;2022-07-18T13:26:45;38.20;25.10
37560;DHT22;23398;50.928;7.084;2022-07-18T13:29:11;38.20;23.80
37560;DHT22;23398;50.928;7.084;2022-07-18T13:31:37;38.30;23.50
37560;DHT22;23398;50.928;7.084;2022-07-18T13:34:03;38.30;24.40
37560;DHT22;23398;50.928;7.084;2022-07-18T13:36:29;38.30;23.70
37560;DHT22;23398;50.928;7.084;2022-07-18T13:38:54;38.30;24.20
37560;DHT22;23398;50.928;7.084;2022-07-18T13:41:21;38.30;24.40
37560;DHT22;23398;50.928;7.084;2022-07-18T13:43:47;38.30;23.80
37560;DHT22;23398;50.928;7.084;2022-07-18T13:46:12;38.30;23.80
37560;DHT22;23398;50.928;7.084;2022-07-18T13:48:38;38.30;24.10
37560;DHT22;23398;50.928;7.084;2022-07-18T13:51:05;38.20;24.50
37560;DHT22;23398;50.928;7.084;2022-07-18T13:53:31;38.10;23.60
37560;DHT22;23398;50.928;7.084;2022-07-18T13:55:57;38.10;24.40
37560;DHT22;23398;50.928;7.084;2022-07-18T13:58:23;38.00;24.90
37560;DHT22;23398;50.928;7.084;2022-07-18T14:00:49;37.90;23.80
37560;DHT22;23398;50.928;7.084;2022-07-18T14:03:15;37.80;24.50
37560;DHT22;23398;50.928;7.084;2022-07-18T14:05:40;37.70;24.30
37560;DHT22;23398;50.928;7.084;2022-07-18T14:08:07;37.60;24.20
37560;DHT22;23398;50.928;7.084;2022-07-18T14:10:33;37.50;24.30
37560;DHT22;23398;50.928;7.084;2022-07-18T14:12:59;37.40;24.90
37560;DHT22;23398;50.928;7.084;2022-07-18T14:15:25;37.30;25.80
37560;DHT22;23398;50.928;7.084;2022-07-18T14:17:50;37.20;25.10
37560;DHT22;23398;50.928;7.084;2022-07-18T14:20:16;37.10;25.70
37560;DHT22;23398;50.928;7.084;2022-07-18T14:22:43;37.00;25.10
37560;DHT22;23398;50.928;7.084;2022-07-18T14:25:11;36.90;24.70
37560;DHT22;23398;50.928;7.084;2022-07-18T14:27:37;36.80;24.30
37560;DHT22;23398;50.928;7.084;2022-07-18T14:30:05;36.80;24.80
37560;DHT22;23398;50.928;7.084;2022-07-18T14:32:31;36.70;24.50
37560;DHT22;23398;50.928;7.084;2022-07-18T14:34:57;36.70;25.50
37560;DHT22;23398;50.928;7.084;2022-07-18T14:37:22;36.60;24.80
37560;DHT22;23398;50.928;7.084;2022-07-18T14:39:48;36.50;24.60
37560;DHT22;23398;50.928;7.084;2022-07-18T14:42:14;36.50;25.20
37560;DHT22;23398;50.928;7.084;2022-07-18T14:44:39;36.50;25.10
37560;DHT22;23398;50.928;7.084;2022-07-18T14:47:05;36.40;25.10
37560;DHT22;23398;50.928;7.084;2022-07-18T14:49:30;36.40;25.50
37560;DHT22;23398;50.928;7.084;2022-07-18T14:51:56;36.30;25.20
37560;DHT22;23398;50.928;7.084;2022-07-18T14:54:22;36.30;25.00
37560;DHT22;23398;50.928;7.084;2022-07-18T14:56:48;36.20;25.90
37560;DHT22;23398;50.928;7.084;2022-07-18T14:59:14;36.30;25.80
37560;DHT22;23398;50.928;7.084;2022-07-18T15:01:39;36.20;25.30
37560;DHT22;23398;50.928;7.084;2022-07-18T15:04:05;36.20;24.90
37560;DHT22;23398;50.928;7.084;2022-07-18T15:06:30;36.20;25.40
37560;DHT22;23398;50.928;7.084;2022-07-18T15:08:56;36.20;26.20
37560;DHT22;23398;50.928;7.084;2022-07-18T15:11:22;36.20;25.80
37560;DHT22;23398;50.928;7.084;2022-07-18T15:13:50;36.20;26.30
37560;DHT22;23398;50.928;7.084;2022-07-18T15:16:16;36.10;26.70
37560;DHT22;23398;50.928;7.084;2022-07-18T15:18:42;36.10;27.00
37560;DHT22;23398;50.928;7.084;2022-07-18T15:21:07;36.10;27.00
37560;DHT22;23398;50.928;7.084;2022-07-18T15:23:33;36.10;26.50
37560;DHT22;23398;50.928;7.084;2022-07-18T15:25:58;36.10;25.70
37560;DHT22;23398;50.928;7.084;2022-07-18T15:28:24;36.10;25.50
37560;DHT22;23398;50.928;7.084;2022-07-18T15:30:50;36.10;26.50
37560;DHT22;23398;50.928;7.084;2022-07-18T15:33:16;36.00;27.20
37560;DHT22;23398;50.928;7.084;2022-07-18T15:35:43;36.00;27.20
37560;DHT22;23398;50.928;7.084;2022-07-18T15:38:09;36.00;27.40
37560;DHT22;23398;50.928;7.084;2022-07-18T15:40:34;36.00;26.30
37560;DHT22;23398;50.928;7.084;2022-07-18T15:43:00;36.00;26.60
37560;DHT22;23398;50.928;7.084;2022-07-18T15:45:26;35.90;26.70
37560;DHT22;23398;50.928;7.084;2022-07-18T15:47:51;35.80;25.70
37560;DHT22;23398;50.928;7.084;2022-07-18T15:50:17;35.80;26.20
37560;DHT22;23398;50.928;7.084;2022-07-18T15:52:43;35.80;26.10
37560;DHT22;23398;50.928;7.084;2022-07-18T15:55:09;35.80;27.10
37560;DHT22;23398;50.928;7.084;2022-07-18T15:57:34;35.80;26.90
37560;DHT22;23398;50.928;7.084;2022-07-18T16:00:01;35.70;26.70
37560;DHT22;23398;50.928;7.084;2022-07-18T16:02:26;35.70;26.40
37560;DHT22;23398;50.928;7.084;2022-07-18T16:04:52;35.70;26.00
37560;DHT22;23398;50.928;7.084;2022-07-18T16:07:18;35.70;26.10
37560;DHT22;23398;50.928;7.084;2022-07-18T16:09:43;35.70;26.00
37560;DHT22;23398;50.928;7.084;2022-07-18T16:12:09;35.70;25.90
37560;DHT22;23398;50.928;7.084;2022-07-18T16:14:35;35.70;26.00
37560;DHT22;23398;50.928;7.084;2022-07-18T16:17:01;35.70;26.00
37560;DHT22;23398;50.928;7.084;2022-07-18T16:19:27;35.70;26.40
37560;DHT22;23398;50.928;7.084;2022-07-18T16:21:53;35.60;26.10
37560;DHT22;23398;50.928;7.084;2022-07-18T16:24:19;35.70;26.10
37560;DHT22;23398;50.928;7.084;2022-07-18T16:26:44;35.70;26.20
37560;DHT22;23398;50.928;7.084;2022-07-18T16:29:10;35.60;26.30